Time;durP1;ratioP1;P1;durP2;ratioP2;P2;SDS_P1;SDS_P2;PMS_P1;PMS_P2;Temp;Humidity;BMP_temperature;BMP_pressure;BME280_temperature;BME280_humidity;BME280_pressure;Samples;Min_cycle;Max_cycle;Signal;HPM_P1;HPM_P2
2022/03/09 00:00:46;;;;;;;27.70;14.85;;;4.70;79.20;;;;;;5072527;28;20041;-70
2022/03/09 00:03:12;;;;;;;21.40;13.05;;;4.80;79.30;;;;;;5072846;28;20048;-70
2022/03/09 00:05:38;;;;;;;25.52;13.23;;;4.70;79.40;;;;;;5072496;28;20040;-69
2022/03/09 00:08:03;;;;;;;26.65;13.68;;;4.70;79.80;;;;;;5055125;28;20032;-70
2022/03/09 00:10:29;;;;;;;23.30;12.98;;;4.70;79.60;;;;;;5072543;28;20020;-70
2022/03/09 00:12:55;;;;;;;22.98;13.73;;;4.70;79.70;;;;;;5072624;28;20115;-70
2022/03/09 00:15:21;;;;;;;25.92;14.55;;;4.70;79.60;;;;;;5072523;28;20032;-70
2022/03/09 00:17:47;;;;;;;30.08;14.57;;;4.80;79.60;;;;;;5072606;28;20059;-70
2022/03/09 00:20:13;;;;;;;27.52;13.50;;;4.80;79.40;;;;;;5054446;28;20505;-69
2022/03/09 00:22:38;;;;;;;29.08;13.90;;;4.90;79.50;;;;;;5054540;28;20078;-70
2022/03/09 00:25:04;;;;;;;21.00;13.40;;;4.70;80.40;;;;;;5072663;28;20465;-69
2022/03/09 00:27:31;;;;;;;25.48;13.02;;;4.70;80.10;;;;;;5072405;28;20115;-70
2022/03/09 00:29:57;;;;;;;23.05;13.05;;;4.60;80.20;;;;;;5054562;28;20393;-69
2022/03/09 00:32:23;;;;;;;30.17;16.55;;;4.70;80.40;;;;;;5072370;28;20039;-69
2022/03/09 00:34:49;;;;;;;33.97;14.30;;;4.70;80.20;;;;;;5072205;28;20457;-69
2022/03/09 00:37:15;;;;;;;23.38;13.73;;;4.70;80.60;;;;;;5072577;28;20040;-69
2022/03/09 00:39:41;;;;;;;28.40;14.30;;;4.60;80.80;;;;;;5072388;28;20021;-69
2022/03/09 00:42:07;;;;;;;24.50;15.07;;;4.60;80.40;;;;;;5072109;28;20135;-69
2022/03/09 00:44:33;;;;;;;23.45;13.85;;;4.60;80.90;;;;;;5072204;28;20028;-70
2022/03/09 00:46:58;;;;;;;21.35;12.73;;;4.60;81.00;;;;;;5074693;28;20026;-69
2022/03/09 00:49:24;;;;;;;27.98;13.35;;;4.70;80.60;;;;;;5075988;28;20028;-70
2022/03/09 00:51:51;;;;;;;20.95;12.50;;;4.60;80.60;;;;;;5058144;28;20020;-69
2022/03/09 00:54:16;;;;;;;25.33;13.43;;;4.60;80.80;;;;;;5076039;28;20078;-69
2022/03/09 00:56:42;;;;;;;20.50;13.05;;;4.60;80.70;;;;;;5075512;28;20396;-70
2022/03/09 00:59:08;;;;;;;25.40;13.48;;;4.60;80.60;;;;;;5076074;28;20025;-69
2022/03/09 01:01:34;;;;;;;29.80;12.93;;;4.60;80.70;;;;;;5076028;28;20024;-69
2022/03/09 01:03:59;;;;;;;26.25;13.88;;;4.60;80.50;;;;;;5075794;28;20028;-69
2022/03/09 01:06:25;;;;;;;25.17;12.07;;;4.70;80.00;;;;;;5075799;28;20385;-69
2022/03/09 01:08:51;;;;;;;23.30;12.43;;;4.50;80.30;;;;;;5075642;28;20104;-69
2022/03/09 01:11:17;;;;;;;27.98;12.95;;;4.60;80.60;;;;;;5075534;28;20032;-69
2022/03/09 01:13:42;;;;;;;23.95;12.95;;;4.50;80.80;;;;;;5075532;28;20020;-70
2022/03/09 01:16:08;;;;;;;23.40;11.95;;;4.60;80.60;;;;;;5075765;28;20036;-70
2022/03/09 01:18:34;;;;;;;23.75;13.20;;;4.60;80.20;;;;;;5075495;28;20473;-70
2022/03/09 01:21:00;;;;;;;19.13;11.43;;;4.70;80.30;;;;;;5075265;28;20039;-70
2022/03/09 01:23:26;;;;;;;21.02;11.55;;;4.60;80.30;;;;;;5075649;28;20575;-69
2022/03/09 01:25:52;;;;;;;19.42;11.32;;;4.60;81.10;;;;;;5057092;28;20123;-70
2022/03/09 01:28:18;;;;;;;21.80;12.15;;;4.50;80.50;;;;;;5075425;28;20016;-70
2022/03/09 01:30:44;;;;;;;19.38;11.88;;;4.30;80.80;;;;;;5075290;28;20033;-70
2022/03/09 01:33:09;;;;;;;20.77;11.75;;;4.30;81.70;;;;;;5075202;28;20028;-69
2022/03/09 01:35:35;;;;;;;22.15;11.20;;;4.40;80.80;;;;;;5075166;28;20029;-70
2022/03/09 01:38:01;;;;;;;20.95;12.68;;;4.40;80.80;;;;;;5075399;28;20115;-69
2022/03/09 01:40:27;;;;;;;26.13;12.38;;;4.30;80.70;;;;;;5057044;28;20066;-70
2022/03/09 01:42:53;;;;;;;20.95;12.50;;;4.30;80.90;;;;;;5075156;28;20035;-70
2022/03/09 01:45:20;;;;;;;21.42;12.93;;;4.40;80.70;;;;;;5075128;28;20028;-70
2022/03/09 01:47:47;;;;;;;23.63;11.25;;;4.50;80.70;;;;;;5075059;28;20023;-70
2022/03/09 01:50:13;;;;;;;21.02;12.10;;;4.50;80.80;;;;;;5075024;28;20476;-70
2022/03/09 01:52:42;;;;;;;18.67;11.15;;;4.30;81.20;;;;;;5075247;28;20029;-70
2022/03/09 01:55:09;;;;;;;19.63;11.60;;;4.20;81.60;;;;;;5056468;28;20452;-69
2022/03/09 01:57:35;;;;;;;21.30;11.40;;;4.20;82.20;;;;;;5055899;28;20441;-70
2022/03/09 02:00:03;;;;;;;19.70;12.18;;;4.10;81.50;;;;;;5056817;28;20025;-70
2022/03/09 02:02:32;;;;;;;26.77;13.00;;;4.10;81.60;;;;;;5074952;28;20029;-70
2022/03/09 02:04:57;;;;;;;18.85;11.48;;;4.20;81.30;;;;;;5074764;28;20031;-70
2022/03/09 02:09:41;;;;;;;18.90;11.80;;;4.20;82.00;;;;;;5074714;28;20112;-70
2022/03/09 02:10:10;;;;;;;23.00;12.45;;;4.20;81.70;;;;;;5074191;28;20081;-69
2022/03/09 02:12:36;;;;;;;20.77;11.85;;;4.10;81.90;;;;;;5074544;28;20073;-69
2022/03/09 02:15:03;;;;;;;21.90;12.65;;;4.00;82.10;;;;;;5074489;28;20484;-69
2022/03/09 02:17:29;;;;;;;35.15;17.52;;;3.90;82.70;;;;;;5074633;28;20038;-70
2022/03/09 02:19:56;;;;;;;24.58;12.18;;;3.90;82.90;;;;;;5074388;28;20036;-70
2022/03/09 02:22:33;;;;;;;22.70;11.77;;;3.90;83.10;;;;;;5074279;28;20062;-69
2022/03/09 02:25:02;;;;;;;21.33;11.95;;;4.00;82.80;;;;;;5056096;28;20055;-69
2022/03/09 02:27:28;;;;;;;20.40;12.48;;;3.80;82.90;;;;;;5074255;28;20024;-69
2022/03/09 02:29:55;;;;;;;26.58;12.20;;;3.90;83.40;;;;;;5074160;28;20027;-69
2022/03/09 02:32:21;;;;;;;22.98;12.27;;;3.90;83.00;;;;;;5074144;28;20029;-70
2022/03/09 02:34:47;;;;;;;19.70;11.68;;;3.90;82.90;;;;;;5074053;28;20021;-70
2022/03/09 02:37:14;;;;;;;18.15;11.30;;;4.00;82.60;;;;;;5074203;28;20067;-70
2022/03/09 02:39:40;;;;;;;21.77;11.85;;;4.00;82.40;;;;;;5073731;28;20028;-69
2022/03/09 02:42:06;;;;;;;22.35;12.32;;;4.10;82.40;;;;;;5073981;28;20025;-70
2022/03/09 02:44:32;;;;;;;29.38;12.48;;;3.90;83.00;;;;;;5074107;28;20021;-69
2022/03/09 02:46:58;;;;;;;27.25;12.30;;;3.90;83.50;;;;;;5055874;28;20384;-70
2022/03/09 02:49:24;;;;;;;24.27;12.10;;;3.80;83.10;;;;;;5074004;28;20480;-70
2022/03/09 02:51:50;;;;;;;19.88;12.48;;;3.90;83.30;;;;;;5073496;28;20071;-70
2022/03/09 02:54:16;;;;;;;23.63;12.63;;;3.80;83.00;;;;;;5073625;28;20430;-69
2022/03/09 02:56:42;;;;;;;27.52;12.85;;;3.80;83.30;;;;;;5073530;28;20033;-70
2022/03/09 02:59:08;;;;;;;24.30;12.68;;;3.70;83.90;;;;;;5073753;28;20471;-70
2022/03/09 03:01:34;;;;;;;19.65;11.65;;;3.70;83.90;;;;;;5073936;28;20158;-69
2022/03/09 03:04:01;;;;;;;18.92;11.98;;;3.70;83.90;;;;;;5073660;28;20029;-70
2022/03/09 03:06:27;;;;;;;18.42;11.52;;;3.70;84.20;;;;;;5073787;28;20025;-69
2022/03/09 03:08:53;;;;;;;22.50;12.05;;;3.70;83.90;;;;;;5073020;28;20028;-70
2022/03/09 03:11:19;;;;;;;19.77;11.27;;;3.60;84.30;;;;;;5073371;28;20024;-70
2022/03/09 03:13:45;;;;;;;18.70;11.40;;;3.50;84.30;;;;;;5073579;28;20043;-69
2022/03/09 03:16:11;;;;;;;26.45;11.95;;;3.40;85.00;;;;;;5073202;28;20115;-69
2022/03/09 03:18:38;;;;;;;25.58;11.85;;;3.50;84.70;;;;;;5073420;28;20424;-70
2022/03/09 03:21:04;;;;;;;19.55;12.07;;;3.50;84.60;;;;;;5073220;28;20040;-70
2022/03/09 03:23:32;;;;;;;24.92;11.23;;;3.40;84.90;;;;;;5073217;28;20472;-69
2022/03/09 03:25:58;;;;;;;22.23;12.32;;;3.40;84.90;;;;;;5073237;28;20029;-70
2022/03/09 03:28:24;;;;;;;22.08;12.18;;;3.40;85.00;;;;;;5073086;28;20028;-70
2022/03/09 03:30:51;;;;;;;23.02;12.27;;;3.40;84.80;;;;;;5073269;28;20029;-69
2022/03/09 03:33:18;;;;;;;19.70;12.88;;;3.60;84.50;;;;;;5073096;28;20025;-70
2022/03/09 03:35:45;;;;;;;27.75;12.02;;;3.50;84.40;;;;;;5073167;28;20076;-69
2022/03/09 03:38:12;;;;;;;20.20;11.80;;;3.50;84.30;;;;;;5054669;28;20535;-69
2022/03/09 03:40:39;;;;;;;20.27;11.85;;;3.40;85.30;;;;;;5073137;28;20028;-69
2022/03/09 03:43:05;;;;;;;21.58;11.30;;;3.40;85.00;;;;;;5072908;28;20369;-69
2022/03/09 03:45:31;;;;;;;16.95;11.52;;;3.30;85.40;;;;;;5072984;28;20032;-69
2022/03/09 03:47:57;;;;;;;19.65;11.38;;;3.40;85.20;;;;;;5072952;28;20154;-70
2022/03/09 03:50:23;;;;;;;19.77;11.60;;;3.40;85.10;;;;;;5072943;28;20078;-69
2022/03/09 03:52:49;;;;;;;19.60;10.55;;;3.40;85.10;;;;;;5059371;28;20021;-69
2022/03/09 03:55:15;;;;;;;18.80;11.70;;;3.50;84.80;;;;;;5052709;28;20044;-70
2022/03/09 03:57:41;;;;;;;21.50;11.02;;;3.50;84.60;;;;;;5052658;28;20271;-70
2022/03/09 04:00:09;;;;;;;23.08;12.10;;;3.40;84.90;;;;;;5052677;28;20029;-70
2022/03/09 04:02:35;;;;;;;26.00;11.98;;;3.40;85.50;;;;;;5052686;28;20111;-69
2022/03/09 04:05:01;;;;;;;18.42;11.85;;;3.40;85.10;;;;;;5052874;28;20021;-69
2022/03/09 04:07:27;;;;;;;21.23;12.02;;;3.30;85.60;;;;;;5034767;28;20043;-69
2022/03/09 04:09:54;;;;;;;24.10;11.90;;;3.30;85.80;;;;;;5054389;28;20048;-69
2022/03/09 04:12:20;;;;;;;22.88;11.63;;;3.30;85.60;;;;;;5054704;28;20384;-69
2022/03/09 04:14:46;;;;;;;22.02;10.98;;;3.30;85.90;;;;;;5072970;28;20373;-69
2022/03/09 04:17:14;;;;;;;28.00;12.20;;;3.30;85.80;;;;;;5072559;28;20421;-69
2022/03/09 04:19:40;;;;;;;19.98;11.38;;;3.30;85.40;;;;;;5072260;28;20055;-69
2022/03/09 04:22:06;;;;;;;24.60;12.10;;;3.30;85.60;;;;;;5074992;28;20062;-69
2022/03/09 04:24:32;;;;;;;18.83;11.68;;;3.20;86.10;;;;;;5058492;28;20020;-69
2022/03/09 04:26:58;;;;;;;22.20;11.35;;;3.10;86.30;;;;;;5076628;28;20024;-69
2022/03/09 04:29:24;;;;;;;22.48;12.43;;;3.10;86.50;;;;;;5076518;28;20074;-70
2022/03/09 04:31:50;;;;;;;24.38;12.35;;;3.10;86.30;;;;;;5076424;28;20488;-70
2022/03/09 04:34:16;;;;;;;22.05;12.82;;;3.10;86.70;;;;;;5076054;28;20024;-70
2022/03/09 04:36:41;;;;;;;20.15;11.00;;;3.10;86.70;;;;;;5076342;28;20043;-70
2022/03/09 04:39:07;;;;;;;22.45;12.13;;;3.10;86.60;;;;;;5076257;28;20021;-70
2022/03/09 04:41:33;;;;;;;22.20;11.77;;;3.10;87.20;;;;;;5076459;28;20398;-70
2022/03/09 04:43:59;;;;;;;23.80;12.23;;;3.20;86.70;;;;;;5076292;28;20431;-70
2022/03/09 04:46:24;;;;;;;22.38;11.77;;;3.20;86.90;;;;;;5076187;28;20033;-70
2022/03/09 04:48:50;;;;;;;20.27;11.82;;;3.30;86.80;;;;;;5075857;28;20028;-70
2022/03/09 04:51:16;;;;;;;30.55;13.13;;;3.30;86.20;;;;;;5076020;28;20114;-70
2022/03/09 04:53:42;;;;;;;24.75;12.10;;;3.30;87.20;;;;;;5058101;28;20037;-70
2022/03/09 04:56:08;;;;;;;24.02;11.93;;;3.30;86.00;;;;;;5076203;28;20044;-70
2022/03/09 04:58:34;;;;;;;20.58;11.88;;;3.30;86.40;;;;;;5075796;28;20504;-70
2022/03/09 05:00:59;;;;;;;20.65;11.20;;;3.20;86.30;;;;;;5076081;28;20094;-70
2022/03/09 05:03:25;;;;;;;26.23;12.48;;;3.40;86.70;;;;;;5075315;28;20408;-70
2022/03/09 05:05:51;;;;;;;25.65;12.65;;;3.40;86.40;;;;;;5075790;28;20060;-70
2022/03/09 05:08:17;;;;;;;24.52;11.50;;;3.40;87.00;;;;;;5075655;28;20029;-71
2022/03/09 05:10:43;;;;;;;24.83;12.85;;;3.30;86.90;;;;;;5075621;28;20103;-71
2022/03/09 05:13:08;;;;;;;25.00;11.70;;;3.20;87.00;;;;;;5075770;28;20090;-71
2022/03/09 05:15:34;;;;;;;21.27;12.18;;;3.30;87.50;;;;;;5075435;28;20090;-70
2022/03/09 05:18:00;;;;;;;26.30;13.15;;;3.30;87.90;;;;;;5075353;28;20442;-70
2022/03/09 05:20:26;;;;;;;28.00;12.15;;;3.20;87.10;;;;;;5075526;28;20056;-70
2022/03/09 05:22:52;;;;;;;21.88;13.63;;;3.30;87.40;;;;;;5075415;28;20119;-70
2022/03/09 05:25:18;;;;;;;25.27;13.05;;;3.20;88.10;;;;;;5075210;28;20024;-71
2022/03/09 05:27:45;;;;;;;23.17;11.90;;;3.30;87.90;;;;;;5075304;28;20453;-70
2022/03/09 05:30:11;;;;;;;29.05;13.13;;;3.40;88.50;;;;;;5075336;28;20040;-71
2022/03/09 05:32:38;;;;;;;20.65;12.27;;;3.50;87.50;;;;;;5074885;28;20029;-71
2022/03/09 05:35:05;;;;;;;27.02;12.77;;;3.50;87.50;;;;;;5075329;28;20112;-71
2022/03/09 05:37:42;;;;;;;26.80;12.05;;;3.50;87.20;;;;;;5057471;28;20042;-70
2022/03/09 05:40:09;;;;;;;25.38;13.00;;;3.50;87.60;;;;;;5075235;28;20021;-70
2022/03/09 05:42:36;;;;;;;24.42;13.05;;;3.50;87.50;;;;;;5075165;28;20082;-71
2022/03/09 05:45:02;;;;;;;25.45;13.43;;;3.30;88.20;;;;;;5075241;28;20020;-70
2022/03/09 05:47:28;;;;;;;26.48;13.27;;;3.30;88.60;;;;;;5074906;28;20036;-71
2022/03/09 05:49:54;;;;;;;22.77;12.75;;;3.40;88.90;;;;;;5075025;28;20465;-70
2022/03/09 05:52:20;;;;;;;24.17;13.05;;;3.30;88.70;;;;;;5075351;28;20032;-70
2022/03/09 05:54:45;;;;;;;25.80;13.73;;;3.20;89.10;;;;;;5074800;28;20021;-70
2022/03/09 05:57:12;;;;;;;27.75;13.10;;;3.00;90.40;;;;;;5075004;28;20151;-70
2022/03/09 05:59:38;;;;;;;30.05;14.23;;;2.80;90.60;;;;;;5056814;28;20477;-70
2022/03/09 06:02:05;;;;;;;37.80;13.60;;;2.80;91.10;;;;;;5074639;28;20052;-70
2022/03/09 06:04:31;;;;;;;24.25;12.95;;;2.90;91.40;;;;;;5057056;28;20469;-70
2022/03/09 06:06:57;;;;;;;23.13;13.98;;;3.00;91.10;;;;;;5056670;28;20021;-70
2022/03/09 06:09:22;;;;;;;23.52;13.40;;;3.10;91.10;;;;;;5056868;28;20434;-71
2022/03/09 06:11:48;;;;;;;31.05;14.32;;;3.00;91.10;;;;;;5074452;28;20023;-70
2022/03/09 06:14:14;;;;;;;31.15;14.73;;;3.00;91.60;;;;;;5074894;28;20144;-70
2022/03/09 06:16:40;;;;;;;23.27;13.68;;;2.90;91.60;;;;;;5074210;28;20048;-70
2022/03/09 06:19:05;;;;;;;35.25;14.50;;;2.80;92.00;;;;;;5074589;28;20111;-70
2022/03/09 06:21:31;;;;;;;28.77;14.45;;;2.90;92.00;;;;;;5074121;28;20036;-70
2022/03/09 06:23:57;;;;;;;32.35;15.48;;;2.80;92.10;;;;;;5074415;28;20393;-70
2022/03/09 06:26:23;;;;;;;31.15;14.07;;;2.80;92.40;;;;;;5074373;28;20393;-70
2022/03/09 06:28:49;;;;;;;33.42;16.08;;;2.80;92.40;;;;;;5073986;28;20443;-70
2022/03/09 06:31:14;;;;;;;32.40;15.27;;;2.80;93.20;;;;;;5073931;28;20029;-71
2022/03/09 06:33:40;;;;;;;31.85;14.07;;;3.10;92.60;;;;;;5073999;28;20492;-70
2022/03/09 06:36:06;;;;;;;24.25;14.07;;;3.00;92.90;;;;;;5073995;28;20040;-71
2022/03/09 06:38:33;;;;;;;38.05;15.00;;;3.20;92.40;;;;;;5074285;28;20104;-71
2022/03/09 06:40:59;;;;;;;24.98;14.65;;;3.00;92.30;;;;;;5073933;28;20016;-70
2022/03/09 06:43:24;;;;;;;22.45;13.55;;;3.10;92.60;;;;;;5073612;28;20028;-70
2022/03/09 06:45:52;;;;;;;30.30;14.32;;;3.10;92.20;;;;;;5055712;28;20109;-70
2022/03/09 06:48:18;;;;;;;27.52;14.50;;;3.40;92.30;;;;;;5073946;28;20614;-70
2022/03/09 06:50:43;;;;;;;28.52;14.23;;;3.50;92.10;;;;;;5073630;28;20033;-70
2022/03/09 06:53:10;;;;;;;31.02;15.07;;;3.50;91.70;;;;;;5074006;28;20024;-71
2022/03/09 06:55:36;;;;;;;24.17;13.35;;;3.50;91.30;;;;;;5073595;28;20055;-71
2022/03/09 06:58:03;;;;;;;29.00;14.90;;;3.40;91.70;;;;;;5055698;28;20095;-71
2022/03/09 07:00:28;;;;;;;31.45;14.02;;;3.40;92.30;;;;;;5073534;28;20035;-70
2022/03/09 07:02:56;;;;;;;29.88;14.40;;;3.40;92.20;;;;;;5073465;28;20383;-70
2022/03/09 07:05:23;;;;;;;31.08;14.70;;;3.60;93.00;;;;;;5073423;28;20039;-71
2022/03/09 07:07:49;;;;;;;24.05;14.20;;;3.70;91.80;;;;;;5073502;28;20726;-71
2022/03/09 07:10:17;;;;;;;25.77;14.00;;;3.70;92.30;;;;;;5055719;28;20350;-71
2022/03/09 07:12:45;;;;;;;29.83;14.20;;;3.80;92.40;;;;;;5071109;28;20039;-71
2022/03/09 07:15:12;;;;;;;28.10;14.43;;;4.00;91.50;;;;;;5068880;28;20028;-71
2022/03/09 07:17:39;;;;;;;34.03;14.13;;;4.10;92.00;;;;;;5051565;28;20496;-70
2022/03/09 07:20:06;;;;;;;27.95;14.27;;;4.20;91.80;;;;;;5052353;28;20029;-70
2022/03/09 07:22:32;;;;;;;26.40;13.02;;;4.30;91.50;;;;;;5052633;28;20036;-70
2022/03/09 07:24:58;;;;;;;25.13;13.63;;;4.50;90.70;;;;;;5052766;28;20025;-70
2022/03/09 07:27:23;;;;;;;28.45;13.88;;;4.40;90.40;;;;;;5034731;28;20460;-70
2022/03/09 07:29:49;;;;;;;33.85;14.25;;;4.50;90.70;;;;;;5052410;28;20017;-70
2022/03/09 07:32:15;;;;;;;30.20;13.45;;;4.40;90.90;;;;;;5052488;28;20036;-71
2022/03/09 07:34:42;;;;;;;25.17;13.93;;;4.40;90.80;;;;;;5052825;28;20021;-71
2022/03/09 07:37:08;;;;;;;27.70;14.13;;;4.40;91.20;;;;;;5034371;28;20079;-71
2022/03/09 07:39:35;;;;;;;33.55;14.73;;;4.50;91.20;;;;;;5057153;28;20040;-70
2022/03/09 07:42:02;;;;;;;24.52;13.70;;;4.60;91.20;;;;;;5072137;28;20039;-71
2022/03/09 07:44:28;;;;;;;27.20;14.23;;;4.60;91.40;;;;;;5037687;28;20031;-72
2022/03/09 07:46:54;;;;;;;29.25;13.95;;;4.70;91.10;;;;;;5071963;28;20045;-72
2022/03/09 07:49:20;;;;;;;27.92;15.10;;;4.80;91.10;;;;;;5054550;28;20378;-70
2022/03/09 07:51:46;;;;;;;30.88;12.60;;;4.90;90.80;;;;;;5072391;28;20090;-70
2022/03/09 07:54:13;;;;;;;24.75;13.63;;;4.90;90.60;;;;;;5072394;28;20055;-71
2022/03/09 07:56:39;;;;;;;31.75;13.55;;;5.00;90.10;;;;;;5071634;28;20028;-70
2022/03/09 07:59:07;;;;;;;31.60;13.27;;;5.10;90.10;;;;;;5072020;28;20441;-71
2022/03/09 08:01:32;;;;;;;30.33;13.70;;;5.20;89.50;;;;;;5072353;28;20060;-70
2022/03/09 08:03:58;;;;;;;32.35;14.27;;;5.20;88.40;;;;;;5072304;28;20071;-70
2022/03/09 08:06:24;;;;;;;29.33;14.27;;;5.30;87.70;;;;;;5072343;28;20020;-70
2022/03/09 08:08:50;;;;;;;31.25;15.18;;;5.40;87.50;;;;;;5054299;28;20365;-71
2022/03/09 08:11:16;;;;;;;32.03;13.75;;;5.60;88.20;;;;;;5072005;28;20036;-70
2022/03/09 08:13:41;;;;;;;35.13;14.45;;;5.70;87.20;;;;;;5071553;28;20047;-71
2022/03/09 08:16:08;;;;;;;31.45;15.52;;;5.90;86.60;;;;;;5072236;28;20045;-71
2022/03/09 08:18:34;;;;;;;27.90;13.82;;;6.00;86.60;;;;;;5054363;28;20082;-71
2022/03/09 08:21:00;;;;;;;33.88;15.82;;;6.10;85.90;;;;;;5054096;28;20024;-71
2022/03/09 08:23:26;;;;;;;34.42;16.33;;;6.30;85.80;;;;;;5071497;28;20036;-72
2022/03/09 08:25:52;;;;;;;32.33;15.70;;;6.50;85.50;;;;;;5072163;28;20028;-71
2022/03/09 08:28:18;;;;;;;36.63;15.73;;;6.70;85.60;;;;;;5071668;28;20024;-71
2022/03/09 08:30:44;;;;;;;31.27;15.80;;;6.90;84.40;;;;;;5072202;28;20043;-70
2022/03/09 08:33:11;;;;;;;33.00;16.02;;;6.90;83.40;;;;;;5071835;28;20024;-71
2022/03/09 08:35:37;;;;;;;33.65;15.30;;;6.80;83.80;;;;;;5054267;28;20032;-70
2022/03/09 08:38:04;;;;;;;35.95;16.35;;;7.00;83.80;;;;;;5071868;28;20271;-71
2022/03/09 08:40:30;;;;;;;39.63;15.50;;;7.10;84.30;;;;;;5071974;28;20380;-71
2022/03/09 08:42:56;;;;;;;35.22;16.73;;;7.30;83.60;;;;;;5071893;28;20136;-71
2022/03/09 08:45:22;;;;;;;36.78;16.70;;;7.40;82.30;;;;;;5054087;28;20476;-71
2022/03/09 08:47:48;;;;;;;37.22;17.27;;;7.40;83.10;;;;;;5072302;28;20059;-70
2022/03/09 08:50:15;;;;;;;32.40;16.58;;;7.70;82.50;;;;;;5071601;28;20032;-71
2022/03/09 08:52:41;;;;;;;41.15;17.63;;;7.80;82.10;;;;;;5056724;28;20469;-71
2022/03/09 08:55:07;;;;;;;42.17;17.02;;;7.90;82.00;;;;;;5051436;28;20025;-71
2022/03/09 08:57:33;;;;;;;41.50;18.02;;;7.90;81.30;;;;;;5051986;28;20044;-71
2022/03/09 09:00:03;;;;;;;34.65;17.45;;;7.80;81.40;;;;;;5051698;28;20028;-70
2022/03/09 09:02:29;;;;;;;45.97;17.17;;;7.90;82.20;;;;;;5051697;28;20054;-70
2022/03/09 09:04:55;;;;;;;38.00;17.38;;;8.10;81.70;;;;;;5051442;28;20381;-71
2022/03/09 09:07:21;;;;;;;47.30;17.80;;;8.20;81.60;;;;;;5052991;28;20025;-72
2022/03/09 09:09:47;;;;;;;40.80;19.35;;;8.40;81.20;;;;;;5055708;28;20556;-71
2022/03/09 09:12:13;;;;;;;37.47;19.15;;;8.50;81.50;;;;;;5075231;28;20028;-70
2022/03/09 09:14:39;;;;;;;44.15;18.00;;;8.40;81.10;;;;;;5074990;28;20067;-71
2022/03/09 09:17:05;;;;;;;44.90;18.98;;;8.70;81.50;;;;;;5075217;28;20082;-71
2022/03/09 09:19:31;;;;;;;47.22;19.88;;;9.00;82.00;;;;;;5075139;28;20067;-71
2022/03/09 09:21:56;;;;;;;43.20;19.38;;;9.10;80.70;;;;;;5075058;28;20434;-70
2022/03/09 09:24:22;;;;;;;47.72;18.42;;;9.00;80.50;;;;;;5074561;28;20028;-71
2022/03/09 09:26:48;;;;;;;39.28;18.48;;;9.10;80.20;;;;;;5075000;28;20029;-71
2022/03/09 09:29:15;;;;;;;33.03;18.85;;;9.30;80.80;;;;;;5074794;28;20051;-71
2022/03/09 09:31:41;;;;;;;42.00;20.02;;;9.50;80.30;;;;;;5074281;28;20108;-71
2022/03/09 09:34:08;;;;;;;39.47;19.35;;;9.70;80.50;;;;;;5054878;28;20029;-71
2022/03/09 09:36:35;;;;;;;43.20;19.52;;;9.60;79.70;;;;;;5057952;28;20033;-70
2022/03/09 09:39:02;;;;;;;37.03;18.80;;;9.70;80.30;;;;;;5054589;28;20493;-71
2022/03/09 09:41:28;;;;;;;44.83;19.05;;;9.90;80.10;;;;;;5054777;28;20111;-71
2022/03/09 09:43:54;;;;;;;46.58;19.10;;;10.00;80.00;;;;;;5074122;28;20021;-71
2022/03/09 09:46:20;;;;;;;35.65;19.08;;;9.90;79.90;;;;;;5067521;28;20166;-71
2022/03/09 09:48:46;;;;;;;48.75;19.92;;;10.00;80.20;;;;;;5054715;28;20473;-71
2022/03/09 09:51:13;;;;;;;41.42;20.80;;;9.90;79.30;;;;;;5054391;28;20094;-71
2022/03/09 09:53:45;;;;;;;47.20;20.70;;;10.00;79.20;;;;;;5054217;28;20017;-71
2022/03/09 09:56:13;;;;;;;39.70;20.27;;;10.20;80.30;;;;;;5054526;28;20033;-71
2022/03/09 09:58:43;;;;;;;42.47;18.88;;;10.40;79.80;;;;;;5054476;28;20052;-71
2022/03/09 10:01:09;;;;;;;41.53;19.08;;;10.60;79.00;;;;;;5054513;28;20078;-71
2022/03/09 10:03:35;;;;;;;42.20;20.48;;;10.70;80.20;;;;;;5054119;28;20382;-72
2022/03/09 10:06:01;;;;;;;51.60;19.73;;;10.80;79.30;;;;;;5054122;28;20021;-72
2022/03/09 10:08:27;;;;;;;46.05;21.27;;;11.00;79.70;;;;;;5054213;28;20079;-71
2022/03/09 10:10:56;;;;;;;48.65;20.58;;;11.20;78.70;;;;;;5064339;28;20021;-71
2022/03/09 10:13:27;;;;;;;45.10;20.05;;;11.00;78.40;;;;;;5074174;28;20465;-71
2022/03/09 10:16:12;;;;;;;41.42;21.30;;;11.00;79.50;;;;;;5073931;28;20032;-70
2022/03/09 10:18:39;;;;;;;46.20;20.88;;;11.10;79.70;;;;;;5073241;28;20500;-71
2022/03/09 10:21:13;;;;;;;38.30;21.13;;;11.30;79.10;;;;;;5073923;28;20032;-70
2022/03/09 10:23:59;;;;;;;41.58;20.73;;;11.50;79.50;;;;;;5072236;28;20090;-71
2022/03/09 10:26:48;;;;;;;46.47;20.90;;;11.30;79.00;;;;;;5073200;28;20033;-71
2022/03/09 10:29:18;;;;;;;42.65;21.95;;;11.20;78.90;;;;;;5060819;28;20072;-70
2022/03/09 10:31:49;;;;;;;42.80;20.90;;;11.20;79.70;;;;;;5073467;28;20043;-70
2022/03/09 10:34:24;;;;;;;41.65;20.35;;;11.70;79.70;;;;;;5056019;28;20028;-71
2022/03/09 10:37:03;;;;;;;42.40;20.85;;;11.90;78.70;;;;;;5073136;28;20041;-69
2022/03/09 10:39:34;;;;;;;46.15;21.63;;;12.30;79.20;;;;;;5073804;28;20029;-70
2022/03/09 10:42:01;;;;;;;42.55;21.05;;;12.30;78.70;;;;;;5073159;28;20024;-71
2022/03/09 10:44:47;;;;;;;45.53;20.40;;;12.60;78.70;;;;;;5073529;28;20052;-70
2022/03/09 10:47:32;;;;;;;46.75;21.27;;;12.30;78.20;;;;;;5055570;28;20033;-70
2022/03/09 10:50:30;;;;;;;42.45;21.02;;;12.50;78.70;;;;;;5073285;28;20098;-71
2022/03/09 10:53:03;;;;;;;48.33;23.92;;;12.40;78.30;;;;;;5065894;28;20491;-70
2022/03/09 10:55:31;;;;;;;48.90;22.27;;;12.40;78.30;;;;;;5070658;28;20046;-70
2022/03/09 10:58:36;;;;;;;42.20;21.58;;;12.80;78.30;;;;;;5072559;28;20170;-70
2022/03/09 11:01:02;;;;;;;39.90;20.00;;;13.30;78.80;;;;;;4956085;28;20069;-71
2022/03/09 11:03:33;;;;;;;43.58;20.33;;;13.50;76.80;;;;;;5053638;28;20473;-71
2022/03/09 11:06:02;;;;;;;43.37;20.73;;;13.70;75.90;;;;;;5072594;28;20166;-70
2022/03/09 11:08:34;;;;;;;44.88;21.80;;;13.80;76.20;;;;;;5072858;28;20067;-70
2022/03/09 11:11:00;;;;;;;;;;;13.80;75.90;;;;;;5073159;28;20089;-70
2022/03/09 11:13:28;;;;;;;46.55;22.02;;;13.80;77.40;;;;;;5072335;28;19908;-70
2022/03/09 11:15:54;;;;;;;45.65;21.65;;;14.10;75.80;;;;;;5072535;28;20552;-70
2022/03/09 11:18:22;;;;;;;48.72;22.48;;;14.30;76.70;;;;;;5072907;28;20393;-70
2022/03/09 11:20:50;;;;;;;47.22;22.52;;;14.00;74.90;;;;;;5072202;28;20028;-69
2022/03/09 11:23:17;;;;;;;42.72;23.33;;;14.10;74.90;;;;;;5072420;28;20040;-70
2022/03/09 11:25:58;;;;;;;44.00;23.15;;;14.60;75.10;;;;;;5072026;28;20035;-70
2022/03/09 11:28:45;;;;;;;41.28;21.80;;;15.10;73.90;;;;;;5072522;28;20044;-70
2022/03/09 11:31:17;;;;;;;44.08;22.45;;;15.50;73.70;;;;;;5068348;28;20097;-70
2022/03/09 11:33:48;;;;;;;42.17;22.40;;;16.30;74.10;;;;;;5070086;28;20035;-70
2022/03/09 11:36:29;;;;;;;47.60;23.33;;;16.80;71.60;;;;;;5071801;28;20044;-69
2022/03/09 11:39:17;;;;;;;36.55;22.40;;;16.50;72.00;;;;;;5072219;28;20032;-70
2022/03/09 11:41:44;;;;;;;43.50;22.00;;;16.50;71.30;;;;;;5072389;28;20164;-70
2022/03/09 11:44:19;;;;;;;50.42;22.63;;;16.30;72.70;;;;;;5072313;28;20029;-71
2022/03/09 11:46:57;;;;;;;48.17;22.98;;;17.00;70.80;;;;;;5072038;28;20054;-70
2022/03/09 11:49:23;;;;;;;45.03;25.67;;;16.90;71.20;;;;;;5072019;28;20084;-70
2022/03/09 11:52:10;;;;;;;44.13;23.55;;;17.30;71.80;;;;;;5054321;28;20028;-70
2022/03/09 11:54:43;;;;;;;44.53;22.77;;;17.80;70.70;;;;;;5072061;28;20035;-71
2022/03/09 11:57:13;;;;;;;49.90;23.02;;;18.10;69.60;;;;;;5053290;28;20036;-70
2022/03/09 11:59:39;;;;;;;41.28;23.23;;;18.40;69.60;;;;;;5035519;28;20033;-70
2022/03/09 12:02:13;;;;;;;39.60;22.33;;;17.80;69.50;;;;;;5071736;28;20032;-70
2022/03/09 12:04:56;;;;;;;39.33;23.23;;;17.80;69.50;;;;;;5072244;28;20021;-70
2022/03/09 12:07:28;;;;;;;46.20;24.15;;;18.00;68.60;;;;;;5072458;28;20507;-70
2022/03/09 12:09:58;;;;;;;53.03;23.48;;;18.50;69.90;;;;;;5054307;28;20040;-70
2022/03/09 12:12:25;;;;;;;41.50;23.48;;;19.20;69.60;;;;;;5054347;28;20373;-71
2022/03/09 12:15:09;;;;;;;41.05;23.52;;;19.80;68.40;;;;;;5072393;28;20155;-71
2022/03/09 12:17:42;;;;;;;50.38;24.10;;;19.90;66.90;;;;;;5054796;28;20047;-70
2022/03/09 12:20:24;;;;;;;45.78;24.92;;;19.50;67.00;;;;;;5072124;28;20063;-70
2022/03/09 12:22:55;;;;;;;42.50;22.70;;;19.50;68.60;;;;;;5051670;28;20036;-70
2022/03/09 12:25:40;;;;;;;;;;;19.80;67.20;;;;;;5072741;28;20033;-70
2022/03/09 12:31:03;;;;;;;42.22;24.20;;;19.90;66.70;;;;;;5059700;28;20116;-70
2022/03/09 12:33:39;;;;;;;44.97;24.08;;;20.30;66.60;;;;;;5052073;28;20478;-71
2022/03/09 12:36:10;;;;;;;49.60;24.10;;;19.80;67.30;;;;;;5051840;28;20033;-70
2022/03/09 12:38:45;;;;;;;46.35;25.08;;;19.90;66.80;;;;;;5052329;28;20033;-70
2022/03/09 12:41:32;;;;;;;44.38;23.25;;;19.40;67.30;;;;;;5052274;28;20043;-70